Terminal Aerodrome Forecast
Issued by NWS Detroit/Pontiac, MI

Home | Current Version | Previous Version | Text Only | Print | Product List | Glossary On
Versions: 1 2 3 4 5 6 7 8 9 10 11 12 13
000
FTUS43 KDTX 222320
TAFFNT
TAF
KFNT 222320Z 2300/2324 11010KT P6SM SCT040 BKN100
     FM230300 11010KT P6SM BKN040 OVC060
     FM230700 11010KT 3SM -RA BR OVC018
      TEMPO 2311/2314 2SM -RA BR OVC008
     FM231600 16008KT 4SM BR OVC012=

USA.gov is the U.S. government's official web portal to all federal, state and local government web resources and services.